createdAt,value
2023-04-21T00:00:44.575Z,97.73
2023-04-21T00:01:44.577Z,97.73
2023-04-21T00:02:44.722Z,97.73
2023-04-21T00:03:44.689Z,97.73
2023-04-21T00:04:44.639Z,97.73
2023-04-21T00:05:44.603Z,97.73
2023-04-21T00:06:44.519Z,97.88
2023-04-21T00:07:44.515Z,97.98
2023-04-21T00:08:44.502Z,97.98
2023-04-21T00:09:44.478Z,97.98
2023-04-21T00:10:44.462Z,97.98
2023-04-21T00:11:44.470Z,98.08
2023-04-21T00:12:44.487Z,98.19
2023-04-21T00:13:44.432Z,98.29
2023-04-21T00:14:44.455Z,98.29
2023-04-21T00:15:44.472Z,98.50
2023-04-21T00:16:44.391Z,98.60
2023-04-21T00:17:44.443Z,98.70
2023-04-21T00:18:44.400Z,98.80
2023-04-21T00:19:44.371Z,98.80
2023-04-21T00:20:44.372Z,98.80
2023-04-21T00:21:44.340Z,98.70
2023-04-21T00:22:44.346Z,98.70
2023-04-21T00:23:44.351Z,98.60
2023-04-21T00:24:44.336Z,98.60
2023-04-21T00:25:44.321Z,98.50
2023-04-21T00:26:44.309Z,98.39
2023-04-21T00:27:44.302Z,98.29
2023-04-21T00:28:44.318Z,98.29
2023-04-21T00:29:44.279Z,98.19
2023-04-21T00:30:44.270Z,98.19
2023-04-21T00:31:44.282Z,98.19
2023-04-21T00:32:44.315Z,98.19
2023-04-21T00:33:44.237Z,98.19
2023-04-21T00:34:44.268Z,98.08
2023-04-21T00:35:44.205Z,98.08
2023-04-21T00:36:44.229Z,98.08
2023-04-21T00:37:44.189Z,98.08
2023-04-21T00:38:44.201Z,98.08
2023-04-21T00:39:44.184Z,98.08
2023-04-21T00:40:44.163Z,98.08
2023-04-21T00:41:44.202Z,98.08
2023-04-21T00:42:44.128Z,98.19
2023-04-21T00:43:44.120Z,98.29
2023-04-21T00:44:44.098Z,98.29
2023-04-21T00:45:44.111Z,98.39
2023-04-21T00:46:44.166Z,98.39
2023-04-21T00:47:44.164Z,98.50
2023-04-21T00:48:44.060Z,98.50
2023-04-21T00:49:44.053Z,98.60
2023-04-21T00:50:44.050Z,98.70
2023-04-21T00:51:44.101Z,98.70
2023-04-21T00:52:44.045Z,98.75
2023-04-21T00:53:44.075Z,98.70
2023-04-21T00:54:44.014Z,98.70
2023-04-21T00:55:44.002Z,98.80
2023-04-21T00:56:43.974Z,98.80
2023-04-21T00:57:43.981Z,98.80
2023-04-21T00:58:43.972Z,98.80
2023-04-21T00:59:43.948Z,98.75
2023-04-21T01:00:43.986Z,98.75
2023-04-21T01:01:43.947Z,98.65
2023-04-21T01:02:44.032Z,98.65
2023-04-21T01:03:44.051Z,98.65
2023-04-21T01:04:43.917Z,98.65
2023-04-21T01:05:43.893Z,98.65
2023-04-21T01:06:43.913Z,98.65
2023-04-21T01:07:43.877Z,98.65
2023-04-21T01:08:43.855Z,98.65
2023-04-21T01:09:43.846Z,98.75
2023-04-21T01:10:43.840Z,98.75
2023-04-21T01:11:43.835Z,98.75
2023-04-21T01:12:43.815Z,98.85
2023-04-21T01:13:43.798Z,98.85
2023-04-21T01:14:43.805Z,98.85
2023-04-21T01:15:43.795Z,98.85
2023-04-21T01:16:43.812Z,98.75
2023-04-21T01:17:43.803Z,98.75
2023-04-21T01:18:43.746Z,98.65
2023-04-21T01:19:43.755Z,98.65
2023-04-21T01:20:43.732Z,98.65
2023-04-21T01:21:43.709Z,98.58
2023-04-21T01:22:43.699Z,98.58
2023-04-21T01:23:43.682Z,98.58
2023-04-21T01:24:43.690Z,98.49
2023-04-21T01:25:43.705Z,98.49
2023-04-21T01:26:43.672Z,98.49
2023-04-21T01:27:43.645Z,98.49
2023-04-21T01:28:43.633Z,98.58
2023-04-21T01:29:43.616Z,98.49
2023-04-21T01:30:43.636Z,98.49
2023-04-21T01:31:43.613Z,98.38
2023-04-21T01:32:43.655Z,98.38
2023-04-21T01:33:43.585Z,98.28
2023-04-21T01:34:43.577Z,98.38
2023-04-21T01:35:43.550Z,98.38
2023-04-21T01:36:43.555Z,98.38
2023-04-21T01:37:43.544Z,98.38
2023-04-21T01:38:43.566Z,98.28
2023-04-21T01:39:43.517Z,98.18
2023-04-21T01:40:43.499Z,98.11
2023-04-21T01:41:43.493Z,98.01
2023-04-21T01:42:43.506Z,98.11
2023-04-21T01:43:43.472Z,98.11
2023-04-21T01:44:43.474Z,98.22
2023-04-21T01:45:43.510Z,98.32
2023-04-21T01:46:43.449Z,98.22
2023-04-21T01:47:43.460Z,98.22
2023-04-21T01:48:43.412Z,98.22
2023-04-21T01:49:43.411Z,98.11
2023-04-21T01:50:43.440Z,98.01
2023-04-21T01:51:43.405Z,98.01
2023-04-21T01:52:43.391Z,98.01
2023-04-21T01:53:43.374Z,97.91
2023-04-21T01:54:43.373Z,97.91
2023-04-21T01:55:43.349Z,97.81
2023-04-21T01:56:43.368Z,97.75
2023-04-21T01:57:43.360Z,97.75
2023-04-21T01:58:43.317Z,97.64
2023-04-21T01:59:43.338Z,97.64
2023-04-21T02:00:43.313Z,97.54
2023-04-21T02:01:43.317Z,97.54
2023-04-21T02:02:43.471Z,97.54
2023-04-21T02:03:43.519Z,97.64
2023-04-21T02:04:43.358Z,97.64
2023-04-21T02:05:43.293Z,97.64
2023-04-21T02:06:43.225Z,97.64
2023-04-21T02:07:43.251Z,97.75
2023-04-21T02:08:43.225Z,97.85
2023-04-21T02:09:43.199Z,97.85
2023-04-21T02:10:43.193Z,97.85
2023-04-21T02:11:43.208Z,97.85
2023-04-21T02:12:43.177Z,97.96
2023-04-21T02:13:44.123Z,97.89
2023-04-21T02:14:43.167Z,97.79
2023-04-21T02:15:43.158Z,97.69
2023-04-21T02:16:43.196Z,97.69
2023-04-21T02:17:43.239Z,97.79
2023-04-21T02:18:43.118Z,97.79
2023-04-21T02:19:43.094Z,97.79
2023-04-21T02:20:43.093Z,97.89
2023-04-21T02:21:43.071Z,98.00
2023-04-21T02:22:43.094Z,98.00
2023-04-21T02:23:43.061Z,98.10
2023-04-21T02:24:43.062Z,98.00
2023-04-21T02:25:43.041Z,98.00
2023-04-21T02:26:43.004Z,98.10
2023-04-21T02:27:43.030Z,98.10
2023-04-21T02:28:42.993Z,98.10
2023-04-21T02:29:42.998Z,98.21
2023-04-21T02:30:42.962Z,98.21
2023-04-21T02:31:56.585Z,98.10
2023-04-21T02:32:44.085Z,98.00
2023-04-21T02:33:42.955Z,97.89
2023-04-21T02:34:42.937Z,97.84
2023-04-21T02:35:42.930Z,97.74
2023-04-21T02:36:42.932Z,97.63
2023-04-21T02:37:42.912Z,97.53
2023-04-21T02:38:42.906Z,97.53
2023-04-21T02:39:42.904Z,97.53
2023-04-21T02:40:42.877Z,97.63
2023-04-21T02:41:42.860Z,97.84
2023-04-21T02:42:42.853Z,97.94
2023-04-21T02:43:42.857Z,97.94
2023-04-21T02:44:42.853Z,97.94
2023-04-21T02:45:42.822Z,97.94
2023-04-21T02:46:42.844Z,97.94
2023-04-21T02:47:42.862Z,97.94
2023-04-21T02:48:42.806Z,97.84
2023-04-21T02:49:42.784Z,97.88
2023-04-21T02:50:42.767Z,97.99
2023-04-21T02:51:42.759Z,98.19
2023-04-21T02:52:42.742Z,98.30
2023-04-21T02:53:42.724Z,98.40
2023-04-21T02:54:42.731Z,98.61
2023-04-21T02:55:42.711Z,98.61
2023-04-21T02:56:42.711Z,98.50
2023-04-21T02:57:42.682Z,98.61
2023-04-21T02:58:42.699Z,98.50
2023-04-21T02:59:42.683Z,98.50
2023-04-21T03:00:42.671Z,98.50
2023-04-21T03:01:42.665Z,98.50
2023-04-21T03:02:42.806Z,98.61
2023-04-21T03:03:42.710Z,98.71
2023-04-21T03:04:42.737Z,98.71
2023-04-21T03:05:42.593Z,98.82
2023-04-21T03:06:42.607Z,98.82
2023-04-21T03:07:42.600Z,98.71
2023-04-21T03:08:42.566Z,98.71
2023-04-21T03:09:42.569Z,98.61
2023-04-21T03:10:42.547Z,98.61
2023-04-21T03:11:42.525Z,98.50
2023-04-21T03:12:42.531Z,98.71
2023-04-21T03:13:42.547Z,98.92
2023-04-21T03:14:42.553Z,99.33
2023-04-21T03:15:42.487Z,99.43
2023-04-21T03:16:42.568Z,99.54
2023-04-21T03:17:42.532Z,99.70
2023-04-21T03:18:42.472Z,99.80
2023-04-21T03:19:42.457Z,99.99
2023-04-21T03:20:42.450Z,99.99
2023-04-21T03:21:42.435Z,99.99
2023-04-21T03:22:42.415Z,99.99
2023-04-21T03:23:42.424Z,99.99
2023-04-21T03:24:42.436Z,99.99
2023-04-21T03:25:42.454Z,99.99
2023-04-21T03:26:42.400Z,99.99
2023-04-21T03:27:42.360Z,99.99
2023-04-21T03:28:42.358Z,99.99
2023-04-21T03:29:42.343Z,99.99
2023-04-21T03:30:42.359Z,99.99
2023-04-21T03:31:42.420Z,99.99
2023-04-21T03:32:42.358Z,99.99
2023-04-21T03:33:42.392Z,99.99
2023-04-21T03:34:42.652Z,99.99
2023-04-21T03:35:43.071Z,99.99
2023-04-21T03:36:43.618Z,99.99
2023-04-21T03:37:42.287Z,99.99
2023-04-21T03:38:42.249Z,99.99
2023-04-21T03:39:42.259Z,99.99
2023-04-21T03:40:42.252Z,99.99
2023-04-21T03:41:42.237Z,99.99
2023-04-21T03:42:42.214Z,99.99
2023-04-21T03:43:42.208Z,99.99
2023-04-21T03:44:42.196Z,99.99
2023-04-21T03:45:42.257Z,99.99
2023-04-21T03:46:42.307Z,99.99
2023-04-21T03:47:42.215Z,99.99
2023-04-21T03:48:42.296Z,99.99
2023-04-21T03:49:42.139Z,99.99
2023-04-21T03:50:42.117Z,99.99
2023-04-21T03:51:42.124Z,99.99
2023-04-21T03:52:42.099Z,99.99
2023-04-21T03:53:42.104Z,99.99
2023-04-21T03:54:42.083Z,99.99
2023-04-21T03:55:42.067Z,99.99
2023-04-21T03:56:42.045Z,99.99
2023-04-21T03:57:42.050Z,99.99
2023-04-21T03:58:42.029Z,99.99
2023-04-21T03:59:42.054Z,99.99
2023-04-21T04:00:42.015Z,99.99
2023-04-21T04:01:42.008Z,99.99
2023-04-21T04:02:42.192Z,99.99
2023-04-21T04:03:42.068Z,99.99
2023-04-21T04:04:42.170Z,99.99
2023-04-21T04:05:42.149Z,99.99
2023-04-21T04:06:41.957Z,99.99
2023-04-21T04:07:42.023Z,99.99
2023-04-21T04:08:41.937Z,99.99
2023-04-21T04:09:41.923Z,99.99
2023-04-21T04:10:41.919Z,99.99
2023-04-21T04:11:41.889Z,99.99
2023-04-21T04:12:41.903Z,99.99
2023-04-21T04:13:41.887Z,99.99
2023-04-21T04:14:41.870Z,99.99
2023-04-21T04:15:41.883Z,99.99
2023-04-21T04:16:41.855Z,99.99
2023-04-21T04:17:41.880Z,99.99
2023-04-21T04:18:41.832Z,99.99
2023-04-21T04:19:41.820Z,99.99
2023-04-21T04:20:41.805Z,99.99
2023-04-21T04:21:42.488Z,99.99
2023-04-21T04:22:41.821Z,99.99
2023-04-21T04:23:42.856Z,99.99
2023-04-21T04:24:41.776Z,99.99
2023-04-21T04:25:42.468Z,99.99
2023-04-21T04:26:41.752Z,99.99
2023-04-21T04:27:42.741Z,99.99
2023-04-21T04:28:41.780Z,99.99
2023-04-21T04:29:42.440Z,99.99
2023-04-21T04:30:41.693Z,99.99
2023-04-21T04:31:42.580Z,99.99
2023-04-21T04:32:41.869Z,99.99
2023-04-21T04:33:42.454Z,99.99
2023-04-21T04:34:41.664Z,99.99
2023-04-21T04:35:41.684Z,99.99
2023-04-21T04:36:41.638Z,99.99
2023-04-21T04:37:41.634Z,99.99
2023-04-21T04:38:41.620Z,99.99
2023-04-21T04:39:41.586Z,99.99
2023-04-21T04:40:41.599Z,99.99
2023-04-21T04:41:41.591Z,99.99
2023-04-21T04:42:41.683Z,99.99
2023-04-21T04:43:41.572Z,99.99
2023-04-21T04:44:41.806Z,99.99
2023-04-21T04:45:41.542Z,99.99
2023-04-21T04:46:41.526Z,99.99
2023-04-21T04:47:41.552Z,99.99
2023-04-21T04:48:41.503Z,99.99
2023-04-21T04:49:41.496Z,99.99
2023-04-21T04:50:41.467Z,99.99
2023-04-21T04:51:41.457Z,99.99
2023-04-21T04:52:41.459Z,99.99
2023-04-21T04:53:41.461Z,99.99
2023-04-21T04:54:41.428Z,99.99
2023-04-21T04:55:41.439Z,99.99
2023-04-21T04:56:41.407Z,99.99
2023-04-21T04:57:41.460Z,99.99
2023-04-21T04:58:41.398Z,99.99
2023-04-21T04:59:41.378Z,99.99
2023-04-21T05:00:41.388Z,99.99
2023-04-21T05:01:41.380Z,99.99
2023-04-21T05:02:41.562Z,99.99
2023-04-21T05:03:41.434Z,99.99
2023-04-21T05:04:41.398Z,99.99
2023-04-21T05:05:41.322Z,99.99
2023-04-21T05:06:41.297Z,99.99
2023-04-21T05:07:41.308Z,99.99
2023-04-21T05:08:41.273Z,99.99
2023-04-21T05:09:41.289Z,99.99
2023-04-21T05:10:41.251Z,99.99
2023-04-21T05:11:41.264Z,99.99
2023-04-21T05:12:41.258Z,99.99
2023-04-21T05:13:41.241Z,99.99
2023-04-21T05:14:41.222Z,99.99
2023-04-21T05:15:41.218Z,99.99
2023-04-21T05:16:41.220Z,99.99
2023-04-21T05:17:41.230Z,99.99
2023-04-21T05:18:41.195Z,99.99
2023-04-21T05:19:41.180Z,99.99
2023-04-21T05:20:41.183Z,99.99
2023-04-21T05:21:41.161Z,99.99
2023-04-21T05:22:41.122Z,99.99
2023-04-21T05:23:41.125Z,99.99
2023-04-21T05:24:41.109Z,99.99
2023-04-21T05:25:41.128Z,99.99
2023-04-21T05:26:41.096Z,99.99
2023-04-21T05:27:41.082Z,99.99
2023-04-21T05:28:41.071Z,99.99
2023-04-21T05:29:41.064Z,99.99
2023-04-21T05:30:41.058Z,99.99
2023-04-21T05:31:41.115Z,99.99
2023-04-21T05:32:41.030Z,99.99
2023-04-21T05:33:41.031Z,99.99
2023-04-21T05:34:41.008Z,99.99
2023-04-21T05:35:41.002Z,99.99
2023-04-21T05:36:40.987Z,99.99
2023-04-21T05:37:40.986Z,99.99
2023-04-21T05:38:40.970Z,99.99
2023-04-21T05:39:40.967Z,99.99
2023-04-21T05:40:40.957Z,99.99
2023-04-21T05:41:40.946Z,99.99
2023-04-21T05:42:40.918Z,99.99
2023-04-21T05:43:40.912Z,99.99
2023-04-21T05:44:40.891Z,99.99
2023-04-21T05:45:40.927Z,99.99
2023-04-21T05:46:40.915Z,99.99
2023-04-21T05:47:40.885Z,99.99
2023-04-21T05:48:40.849Z,99.99
2023-04-21T05:49:40.864Z,99.99
2023-04-21T05:50:40.859Z,99.99
2023-04-21T05:51:40.838Z,99.99
2023-04-21T05:52:40.813Z,99.99
2023-04-21T05:53:40.790Z,99.99
2023-04-21T05:54:40.798Z,99.99
2023-04-21T05:55:40.787Z,99.99
2023-04-21T05:56:40.766Z,99.99
2023-04-21T05:57:40.753Z,99.99
2023-04-21T05:58:40.741Z,99.99
2023-04-21T05:59:40.739Z,99.99
2023-04-21T06:00:40.735Z,99.99
2023-04-21T06:01:40.733Z,99.99
2023-04-21T06:02:40.873Z,99.99
2023-04-21T06:03:40.933Z,99.99
2023-04-21T06:04:40.823Z,99.99
2023-04-21T06:05:40.766Z,99.99
2023-04-21T06:06:40.657Z,99.99
2023-04-21T06:07:40.656Z,99.99
2023-04-21T06:08:40.630Z,99.99
2023-04-21T06:09:40.638Z,99.99
2023-04-21T06:10:40.641Z,99.99
2023-04-21T06:11:40.623Z,99.93
2023-04-21T06:12:40.599Z,99.93
2023-04-21T06:13:43.000Z,99.93
2023-04-21T06:14:40.578Z,99.99
2023-04-21T06:15:40.581Z,99.99
2023-04-21T06:16:40.627Z,99.99
2023-04-21T06:17:40.578Z,99.99
2023-04-21T06:18:40.544Z,99.99
2023-04-21T06:19:41.881Z,99.99
2023-04-21T06:20:40.520Z,99.99
2023-04-21T06:21:40.515Z,99.99
2023-04-21T06:22:40.500Z,99.99
2023-04-21T06:23:40.483Z,99.99
2023-04-21T06:24:40.479Z,99.99
2023-04-21T06:25:40.479Z,99.99
2023-04-21T06:26:40.450Z,99.94
2023-04-21T06:27:40.448Z,99.94
2023-04-21T06:28:40.450Z,99.99
2023-04-21T06:29:40.452Z,99.99
2023-04-21T06:30:40.410Z,99.84
2023-04-21T06:31:40.446Z,99.84
2023-04-21T06:32:40.455Z,99.84
2023-04-21T06:33:40.360Z,99.90
2023-04-21T06:34:40.367Z,99.99
2023-04-21T06:35:40.371Z,99.99
2023-04-21T06:36:40.358Z,99.99
2023-04-21T06:37:40.334Z,99.99
2023-04-21T06:38:40.452Z,99.99
2023-04-21T06:39:40.321Z,99.99
2023-04-21T06:40:40.310Z,99.99
2023-04-21T06:41:40.319Z,99.99
2023-04-21T06:42:40.282Z,99.99
2023-04-21T06:43:40.276Z,99.99
2023-04-21T06:44:40.266Z,99.99
2023-04-21T06:45:40.255Z,99.99
2023-04-21T06:46:40.290Z,99.99
2023-04-21T06:47:40.244Z,99.99
2023-04-21T06:48:40.229Z,99.99
2023-04-21T06:49:40.222Z,99.99
2023-04-21T06:50:40.205Z,99.99
2023-04-21T06:51:40.180Z,99.99
2023-04-21T06:52:40.189Z,99.99
2023-04-21T06:53:40.169Z,99.99
2023-04-21T06:54:40.153Z,99.99
2023-04-21T06:55:40.143Z,99.99
2023-04-21T06:56:40.139Z,99.99
2023-04-21T06:57:40.111Z,99.99
2023-04-21T06:58:40.109Z,99.99
2023-04-21T06:59:40.110Z,99.99
2023-04-21T07:00:40.165Z,99.99
2023-04-21T07:01:40.170Z,99.99
2023-04-21T07:02:40.105Z,99.99
2023-04-21T07:03:40.217Z,99.99
2023-04-21T07:04:40.086Z,99.99
2023-04-21T07:05:40.047Z,99.99
2023-04-21T07:06:40.072Z,99.99
2023-04-21T07:07:40.016Z,99.99
2023-04-21T07:08:40.088Z,99.99
2023-04-21T07:09:40.014Z,99.99
2023-04-21T07:10:39.999Z,99.99
2023-04-21T07:11:39.976Z,99.99
2023-04-21T07:12:39.987Z,99.99
2023-04-21T07:13:39.992Z,99.99
2023-04-21T07:14:39.953Z,99.99
2023-04-21T07:15:39.944Z,99.99
2023-04-21T07:16:39.943Z,99.99
2023-04-21T07:17:39.913Z,99.91
2023-04-21T07:18:39.905Z,99.91
2023-04-21T07:19:39.891Z,99.81
2023-04-21T07:20:39.888Z,99.71
2023-04-21T07:21:39.878Z,99.60
2023-04-21T07:22:39.865Z,99.51
2023-04-21T07:23:39.850Z,99.51
2023-04-21T07:24:39.849Z,99.40
2023-04-21T07:25:39.840Z,99.30
2023-04-21T07:26:39.827Z,99.30
2023-04-21T07:27:39.854Z,99.15
2023-04-21T07:28:39.808Z,99.05
2023-04-21T07:29:39.787Z,98.94
2023-04-21T07:30:39.813Z,98.84
2023-04-21T07:31:39.862Z,98.84
2023-04-21T07:32:39.780Z,98.74
2023-04-21T07:33:39.745Z,98.69
2023-04-21T07:34:39.752Z,98.59
2023-04-21T07:35:39.724Z,98.59
2023-04-21T07:36:39.720Z,98.69
2023-04-21T07:37:39.697Z,98.59
2023-04-21T07:38:39.719Z,98.33
2023-04-21T07:39:39.664Z,98.24
2023-04-21T07:40:39.696Z,98.13
2023-04-21T07:41:39.667Z,98.03
2023-04-21T07:42:39.658Z,97.88
2023-04-21T07:43:39.639Z,97.67
2023-04-21T07:44:39.662Z,97.57
2023-04-21T07:45:39.618Z,97.27
2023-04-21T07:46:39.666Z,97.06
2023-04-21T07:47:39.662Z,96.91
2023-04-21T07:48:39.610Z,96.81
2023-04-21T07:49:39.589Z,96.70
2023-04-21T07:50:39.570Z,96.30
2023-04-21T07:51:39.820Z,96.15
2023-04-21T07:52:39.535Z,96.04
2023-04-21T07:53:39.546Z,95.84
2023-04-21T07:54:39.544Z,95.84
2023-04-21T07:55:39.492Z,95.69
2023-04-21T07:56:39.489Z,95.59
2023-04-21T07:57:39.513Z,95.49
2023-04-21T07:58:39.511Z,95.18
2023-04-21T07:59:39.471Z,94.87
2023-04-21T08:00:39.483Z,94.98
2023-04-21T08:01:39.457Z,94.77
2023-04-21T08:02:39.482Z,94.26
2023-04-21T08:03:39.602Z,94.36
2023-04-21T08:04:39.735Z,94.52
2023-04-21T08:05:41.293Z,94.62
2023-04-21T08:06:39.600Z,94.52
2023-04-21T08:07:39.406Z,94.62
2023-04-21T08:08:39.400Z,94.52
2023-04-21T08:09:39.364Z,94.01
2023-04-21T08:10:39.351Z,93.70
2023-04-21T08:11:39.347Z,93.70
2023-04-21T08:12:39.591Z,93.70
2023-04-21T08:13:39.328Z,93.90
2023-04-21T08:14:39.323Z,94.11
2023-04-21T08:15:39.291Z,94.32
2023-04-21T08:16:39.374Z,94.42
2023-04-21T08:17:39.287Z,94.42
2023-04-21T08:18:39.251Z,94.42
2023-04-21T08:19:39.250Z,94.11
2023-04-21T08:20:39.251Z,93.80
2023-04-21T08:21:39.245Z,93.70
2023-04-21T08:22:39.279Z,93.70
2023-04-21T08:23:39.221Z,93.60
2023-04-21T08:24:39.230Z,93.49
2023-04-21T08:25:39.213Z,93.45
2023-04-21T08:26:39.182Z,93.45
2023-04-21T08:27:39.177Z,93.45
2023-04-21T08:28:39.160Z,93.04
2023-04-21T08:29:39.155Z,92.94
2023-04-21T08:30:39.131Z,92.94
2023-04-21T08:31:39.322Z,92.94
2023-04-21T08:32:39.165Z,92.53
2023-04-21T08:33:46.800Z,92.63
2023-04-21T08:34:40.116Z,92.74
2023-04-21T08:35:45.170Z,92.32
2023-04-21T08:36:40.092Z,92.32
2023-04-21T08:37:39.070Z,92.12
2023-04-21T08:38:39.064Z,92.32
2023-04-21T08:39:39.027Z,92.63
2023-04-21T08:40:39.074Z,92.90
2023-04-21T08:41:39.013Z,93.00
2023-04-21T08:42:39.020Z,92.79
2023-04-21T08:43:38.998Z,92.79
2023-04-21T08:44:38.978Z,92.69
2023-04-21T08:45:39.068Z,92.59
2023-04-21T08:46:38.980Z,92.59
2023-04-21T08:47:38.954Z,92.38
2023-04-21T08:48:38.945Z,92.44
2023-04-21T08:49:38.919Z,92.14
2023-04-21T08:50:38.931Z,91.93
2023-04-21T08:51:38.920Z,91.83
2023-04-21T08:52:38.930Z,92.03
2023-04-21T08:53:38.874Z,92.03
2023-04-21T08:54:38.879Z,92.03
2023-04-21T08:55:38.866Z,92.14
2023-04-21T08:56:38.868Z,92.14
2023-04-21T08:57:38.865Z,92.24
2023-04-21T08:58:38.899Z,92.34
2023-04-21T08:59:38.817Z,92.30
2023-04-21T09:00:38.819Z,92.30
2023-04-21T09:01:38.866Z,91.99
2023-04-21T09:02:38.987Z,91.99
2023-04-21T09:03:38.918Z,92.40
2023-04-21T09:04:39.094Z,92.40
2023-04-21T09:05:42.926Z,92.19
2023-04-21T09:06:38.800Z,92.30
2023-04-21T09:07:38.747Z,92.46
2023-04-21T09:08:38.724Z,91.85
2023-04-21T09:09:38.738Z,91.64
2023-04-21T09:10:38.730Z,91.23
2023-04-21T09:11:38.718Z,91.23
2023-04-21T09:12:38.699Z,91.44
2023-04-21T09:13:38.702Z,90.92
2023-04-21T09:14:38.656Z,90.82
2023-04-21T09:15:38.654Z,90.62
2023-04-21T09:16:38.687Z,90.37
2023-04-21T09:17:38.867Z,90.27
2023-04-21T09:18:38.639Z,90.17
2023-04-21T09:19:38.623Z,89.45
2023-04-21T09:20:38.610Z,89.65
2023-04-21T09:21:38.590Z,89.45
2023-04-21T09:22:38.583Z,89.04
2023-04-21T09:23:38.590Z,89.41
2023-04-21T09:24:38.600Z,89.72
2023-04-21T09:25:38.583Z,89.72
2023-04-21T09:26:38.558Z,89.61
2023-04-21T09:27:38.590Z,89.72
2023-04-21T09:28:38.574Z,89.20
2023-04-21T09:29:38.571Z,88.76
2023-04-21T09:30:38.600Z,88.85
2023-04-21T09:31:38.553Z,88.96
2023-04-21T09:32:38.593Z,88.65
2023-04-21T09:33:49.501Z,88.35
2023-04-21T09:34:39.455Z,88.41
2023-04-21T09:35:38.458Z,88.31
2023-04-21T09:36:38.453Z,87.59
2023-04-21T09:37:38.435Z,87.14
2023-04-21T09:38:38.415Z,87.24
2023-04-21T09:39:52.778Z,87.45
2023-04-21T09:40:39.399Z,86.63
2023-04-21T09:41:38.386Z,85.57
2023-04-21T09:42:40.098Z,84.55
2023-04-21T09:43:38.388Z,84.34
2023-04-21T09:44:50.324Z,85.06
2023-04-21T09:45:40.794Z,85.57
2023-04-21T09:46:38.423Z,85.77
2023-04-21T09:47:38.377Z,85.53
2023-04-21T09:48:38.329Z,85.13
2023-04-21T09:49:38.296Z,85.13
2023-04-21T09:51:20.780Z,85.43
2023-04-21T09:52:06.037Z,85.84
2023-04-21T09:52:39.272Z,85.94
2023-04-21T09:53:38.268Z,86.00
2023-04-21T09:54:38.243Z,85.60
2023-04-21T09:55:38.253Z,84.98
2023-04-21T09:56:38.222Z,85.19
2023-04-21T09:57:38.216Z,84.67
2023-04-21T09:58:38.206Z,84.67
2023-04-21T09:59:38.240Z,84.37
2023-04-21T10:00:38.197Z,84.58
2023-04-21T10:01:38.229Z,84.43
2023-04-21T10:02:38.322Z,83.62
2023-04-21T10:03:38.361Z,84.12
2023-04-21T10:04:38.914Z,84.53
2023-04-21T10:05:40.215Z,84.64
2023-04-21T10:06:38.131Z,84.33
2023-04-21T10:07:38.120Z,83.62
2023-04-21T10:08:38.114Z,83.62
2023-04-21T10:09:38.094Z,83.68
2023-04-21T10:10:38.096Z,83.98
2023-04-21T10:11:38.068Z,84.09
2023-04-21T10:12:38.081Z,83.58
2023-04-21T10:13:38.053Z,83.48
2023-04-21T10:14:38.047Z,83.68
2023-04-21T10:15:38.023Z,83.48
2023-04-21T10:16:38.186Z,83.34
2023-04-21T10:17:38.010Z,83.03
2023-04-21T10:18:37.994Z,82.93
2023-04-21T10:19:37.987Z,83.44
2023-04-21T10:20:37.978Z,83.34
2023-04-21T10:21:37.949Z,83.09
2023-04-21T10:22:37.954Z,83.09
2023-04-21T10:23:37.968Z,82.68
2023-04-21T10:24:37.943Z,81.67
2023-04-21T10:25:37.925Z,81.57
2023-04-21T10:26:37.902Z,82.38
2023-04-21T10:27:37.998Z,81.46
2023-04-21T10:28:37.920Z,81.67
2023-04-21T10:29:52.397Z,82.38
2023-04-21T10:30:38.855Z,82.95
2023-04-21T10:31:37.919Z,82.34
2023-04-21T10:32:37.858Z,81.93
2023-04-21T10:33:37.830Z,81.63
2023-04-21T10:34:37.840Z,81.63
2023-04-21T10:35:37.824Z,81.53
2023-04-21T10:36:37.806Z,81.49
2023-04-21T10:37:37.770Z,81.19
2023-04-21T10:38:37.777Z,81.29
2023-04-21T10:39:37.788Z,81.09
2023-04-21T10:41:37.735Z,79.86
2023-04-21T10:42:37.734Z,80.33
2023-04-21T10:43:37.702Z,81.25
2023-04-21T10:44:37.701Z,80.84
2023-04-21T10:45:38.732Z,80.54
2023-04-21T10:46:37.791Z,80.30
2023-04-21T10:47:37.811Z,80.80
2023-04-21T10:48:37.683Z,80.40
2023-04-21T10:49:37.670Z,80.19
2023-04-21T10:50:39.681Z,79.28
2023-04-21T10:51:37.650Z,80.10
2023-04-21T10:52:37.657Z,80.16
2023-04-21T10:53:37.662Z,79.65
2023-04-21T10:54:37.613Z,79.04
2023-04-21T10:55:37.588Z,79.75
2023-04-21T10:56:38.766Z,79.21
2023-04-21T10:57:37.623Z,79.61
2023-04-21T10:58:37.554Z,79.47
2023-04-21T10:59:37.552Z,78.66
2023-04-21T11:00:37.583Z,78.06
2023-04-21T11:01:37.535Z,78.63
2023-04-21T11:02:40.383Z,78.22
2023-04-21T11:03:37.691Z,75.85
2023-04-21T11:04:37.762Z,76.16
2023-04-21T11:05:37.481Z,76.26
2023-04-21T11:06:37.463Z,75.62
2023-04-21T11:07:37.489Z,75.01
2023-04-21T11:08:38.248Z,75.42
2023-04-21T11:09:37.430Z,75.72
2023-04-21T11:10:37.429Z,76.32
2023-04-21T11:11:37.427Z,75.68
2023-04-21T11:12:37.390Z,74.77
2023-04-21T11:13:37.423Z,74.37
2023-04-21T11:14:37.378Z,73.76
2023-04-21T11:15:37.379Z,73.56
2023-04-21T11:16:37.382Z,74.84
2023-04-21T11:17:37.369Z,74.74
2023-04-21T11:18:37.337Z,74.63
2023-04-21T11:19:37.333Z,75.14
2023-04-21T11:20:37.319Z,75.71
2023-04-21T11:21:37.334Z,75.07
2023-04-21T11:22:37.306Z,74.57
2023-04-21T11:23:37.305Z,73.93
2023-04-21T11:24:37.293Z,71.70
2023-04-21T11:25:37.256Z,71.06
2023-04-21T11:26:37.255Z,70.46
2023-04-21T11:27:37.281Z,70.62
2023-04-21T11:28:37.244Z,70.02
2023-04-21T11:29:37.233Z,70.42
2023-04-21T11:30:37.290Z,70.53
2023-04-21T11:31:37.300Z,70.53
2023-04-21T11:32:38.510Z,71.13
2023-04-21T11:33:37.190Z,70.32
2023-04-21T11:34:37.163Z,70.22
2023-04-21T11:35:37.163Z,70.62
2023-04-21T11:36:37.137Z,70.62
2023-04-21T11:37:37.155Z,70.19
2023-04-21T11:38:37.116Z,69.79
2023-04-21T11:39:37.119Z,69.28
2023-04-21T11:40:37.114Z,69.18
2023-04-21T11:41:37.087Z,69.18
2023-04-21T11:42:37.073Z,68.37
2023-04-21T11:43:37.085Z,68.88
2023-04-21T11:44:37.053Z,69.28
2023-04-21T11:45:37.060Z,69.59
2023-04-21T11:46:37.109Z,69.59
2023-04-21T11:47:37.102Z,68.65
2023-04-21T11:48:37.021Z,68.74
2023-04-21T11:49:37.024Z,68.44
2023-04-21T11:50:36.995Z,68.54
2023-04-21T11:51:37.006Z,68.44
2023-04-21T11:52:36.994Z,68.85
2023-04-21T11:53:36.977Z,69.35
2023-04-21T11:54:36.959Z,69.82
2023-04-21T11:55:36.967Z,68.71
2023-04-21T11:56:36.953Z,69.01
2023-04-21T11:57:36.954Z,67.68
2023-04-21T11:58:36.931Z,66.77
2023-04-21T11:59:36.895Z,66.63
2023-04-21T12:00:36.906Z,66.83
2023-04-21T12:01:36.885Z,66.60
2023-04-21T12:02:37.112Z,66.71
2023-04-21T12:03:37.086Z,66.37
2023-04-21T12:04:36.980Z,64.36
2023-04-21T12:05:36.894Z,64.86
2023-04-21T12:06:36.818Z,66.07
2023-04-21T12:07:36.840Z,66.34
2023-04-21T12:08:36.804Z,65.33
2023-04-21T12:09:36.789Z,65.10
2023-04-21T12:10:36.781Z,65.50
2023-04-21T12:11:36.780Z,64.17
2023-04-21T12:12:36.775Z,63.23
2023-04-21T12:13:36.787Z,62.20
2023-04-21T12:14:36.737Z,62.10
2023-04-21T12:15:36.737Z,61.57
2023-04-21T12:16:36.795Z,61.24
2023-04-21T12:17:36.881Z,60.41
2023-04-21T12:18:36.916Z,60.78
2023-04-21T12:19:36.692Z,60.22
2023-04-21T12:20:36.678Z,57.67
2023-04-21T12:21:36.708Z,57.74
2023-04-21T12:22:36.726Z,57.35
2023-04-21T12:23:36.637Z,54.21
2023-04-21T12:24:36.879Z,53.34
2023-04-21T12:25:36.629Z,52.39
2023-04-21T12:26:36.656Z,50.93
2023-04-21T12:27:36.626Z,49.91
2023-04-21T12:28:36.632Z,49.93
2023-04-21T12:29:36.615Z,49.02
2023-04-21T12:30:39.210Z,49.19
2023-04-21T12:31:36.589Z,49.58
2023-04-21T12:32:36.624Z,48.86
2023-04-21T12:33:36.656Z,48.10
2023-04-21T12:34:36.572Z,46.94
2023-04-21T12:35:36.520Z,46.08
2023-04-21T12:36:36.716Z,44.36
2023-04-21T12:37:36.513Z,44.42
2023-04-21T12:38:36.503Z,42.58
2023-04-21T12:39:36.480Z,41.33
2023-04-21T12:40:36.532Z,40.19
2023-04-21T12:41:36.458Z,39.15
2023-04-21T12:42:37.987Z,38.31
2023-04-21T12:43:36.428Z,37.41
2023-04-21T12:44:36.443Z,37.00
2023-04-21T12:45:36.510Z,36.69
2023-04-21T12:46:36.399Z,36.87
2023-04-21T12:47:36.430Z,36.26
2023-04-21T12:48:36.394Z,36.15
2023-04-21T12:49:36.390Z,35.14
2023-04-21T12:50:36.817Z,34.06
2023-04-21T12:51:36.530Z,34.83
2023-04-21T12:52:36.342Z,34.34
2023-04-21T12:53:36.336Z,34.61